Time;durP1;ratioP1;P1;durP2;ratioP2;P2;SDS_P1;SDS_P2;PMS_P1;PMS_P2;Temp;Humidity;BMP_temperature;BMP_pressure;BME280_temperature;BME280_humidity;BME280_pressure;Samples;Min_cycle;Max_cycle;Signal;HPM_P1;HPM_P2
2023/09/15 00:00:28;;;;;;;11.43;8.00;;;20.00;80.30;;;;;;5077697;28;20052;-71
2023/09/15 00:02:58;;;;;;;10.93;7.55;;;19.90;80.60;;;;;;5077066;28;20036;-67
2023/09/15 00:05:28;;;;;;;10.50;6.90;;;20.00;80.30;;;;;;5059962;28;20346;-67
2023/09/15 00:07:59;;;;;;;9.02;7.07;;;19.90;80.40;;;;;;5078207;28;20036;-66
2023/09/15 00:10:26;;;;;;;9.27;6.65;;;19.90;80.30;;;;;;5077053;28;20135;-72
2023/09/15 00:12:52;;;;;;;10.77;6.78;;;19.90;80.30;;;;;;5077696;28;20450;-71
2023/09/15 00:15:18;;;;;;;9.13;6.60;;;20.00;80.30;;;;;;5077684;28;20017;-71
2023/09/15 00:17:44;;;;;;;8.63;6.35;;;20.00;80.30;;;;;;5077275;28;20127;-70
2023/09/15 00:20:13;;;;;;;10.10;6.75;;;19.90;80.30;;;;;;5077272;28;20052;-72
2023/09/15 00:22:41;;;;;;;10.95;7.00;;;20.00;80.30;;;;;;5077166;28;20101;-67
2023/09/15 00:25:09;;;;;;;11.05;7.50;;;19.90;80.30;;;;;;5077468;28;20028;-68
2023/09/15 00:27:36;;;;;;;9.98;6.95;;;20.00;80.40;;;;;;5077170;28;20044;-71
2023/09/15 00:30:03;;;;;;;11.00;7.97;;;20.00;80.40;;;;;;5076913;28;20044;-72
2023/09/15 00:32:29;;;;;;;11.18;7.25;;;19.90;80.30;;;;;;5077336;28;20044;-66
2023/09/15 00:34:55;;;;;;;11.13;6.78;;;19.90;80.30;;;;;;5076980;28;20068;-72
2023/09/15 00:37:21;;;;;;;9.85;7.18;;;20.00;80.40;;;;;;5076992;28;20021;-72
2023/09/15 00:39:47;;;;;;;13.73;7.95;;;19.90;80.20;;;;;;5076810;28;20039;-71
2023/09/15 00:42:13;;;;;;;12.23;7.28;;;19.90;80.30;;;;;;5077064;28;20042;-67
2023/09/15 00:44:39;;;;;;;10.85;7.30;;;19.90;80.40;;;;;;5076805;28;20035;-71
2023/09/15 00:47:05;;;;;;;10.35;7.38;;;19.90;80.40;;;;;;5077021;28;20024;-70
2023/09/15 00:49:31;;;;;;;11.15;7.28;;;19.90;80.40;;;;;;5076592;28;20071;-67
2023/09/15 00:51:57;;;;;;;10.70;7.32;;;19.90;80.50;;;;;;5077157;28;20044;-66
2023/09/15 00:54:23;;;;;;;10.30;7.32;;;19.90;80.50;;;;;;5076838;28;20064;-66
2023/09/15 00:56:49;;;;;;;11.18;7.07;;;19.90;80.50;;;;;;5076802;28;20376;-67
2023/09/15 00:59:15;;;;;;;10.52;7.82;;;19.90;80.50;;;;;;5058717;28;20039;-72
2023/09/15 01:01:43;;;;;;;12.02;7.82;;;19.80;80.50;;;;;;5076698;28;20111;-67
2023/09/15 01:04:09;;;;;;;12.73;8.52;;;19.80;80.40;;;;;;5076334;28;20032;-70
2023/09/15 01:06:38;;;;;;;13.48;9.32;;;19.80;80.50;;;;;;5076349;28;20046;-72
2023/09/15 01:09:05;;;;;;;14.50;9.13;;;19.70;80.50;;;;;;5076190;28;20482;-72
2023/09/15 01:11:31;;;;;;;13.27;8.88;;;19.70;80.50;;;;;;5075991;28;20052;-72
2023/09/15 01:13:57;;;;;;;15.35;9.52;;;19.70;80.60;;;;;;5076178;28;20056;-72
2023/09/15 01:16:30;;;;;;;14.48;9.07;;;19.60;80.80;;;;;;5076083;28;20024;-72
2023/09/15 01:19:03;;;;;;;15.23;10.05;;;19.60;80.70;;;;;;5076317;28;20417;-67
2023/09/15 01:21:54;;;;;;;12.93;9.70;;;19.50;80.70;;;;;;5076589;28;20020;-72
2023/09/15 01:24:45;;;;;;;12.20;8.60;;;19.50;80.80;;;;;;5076579;28;20419;-67
2023/09/15 01:27:27;;;;;;;12.20;8.50;;;19.50;80.80;;;;;;5076246;28;20059;-72
2023/09/15 01:29:53;;;;;;;11.95;7.65;;;19.50;80.80;;;;;;5075818;28;20062;-67
2023/09/15 01:32:21;;;;;;;11.63;7.78;;;19.50;80.80;;;;;;5075829;28;20025;-72
2023/09/15 01:34:49;;;;;;;10.13;6.88;;;19.50;80.80;;;;;;5075803;28;20025;-71
2023/09/15 01:37:16;;;;;;;10.15;7.07;;;19.50;80.70;;;;;;5058144;28;20245;-71
2023/09/15 01:39:42;;;;;;;10.93;7.43;;;19.50;80.70;;;;;;5075619;28;20032;-72
2023/09/15 01:42:09;;;;;;;10.52;6.70;;;19.50;80.70;;;;;;5075628;28;20358;-71
2023/09/15 01:44:35;;;;;;;10.35;7.00;;;19.50;80.70;;;;;;5075935;28;20032;-71
2023/09/15 01:47:01;;;;;;;10.52;7.10;;;19.50;80.70;;;;;;5076211;28;20028;-67
2023/09/15 01:49:28;;;;;;;8.98;6.20;;;19.50;80.70;;;;;;5075684;28;20028;-67
2023/09/15 01:51:56;;;;;;;12.05;7.68;;;19.50;80.70;;;;;;5076076;28;20017;-72
2023/09/15 01:54:22;;;;;;;9.48;6.35;;;19.40;80.70;;;;;;5075568;28;20029;-72
2023/09/15 01:56:49;;;;;;;10.05;7.05;;;19.40;80.80;;;;;;5075520;28;20107;-66
2023/09/15 01:59:15;;;;;;;8.57;5.90;;;19.40;80.80;;;;;;5075578;28;20397;-66
2023/09/15 02:01:41;;;;;;;9.18;6.25;;;19.40;80.80;;;;;;5075698;28;20020;-67
2023/09/15 02:04:09;;;;;;;8.82;6.32;;;19.40;80.80;;;;;;5075335;28;20028;-71
2023/09/15 02:06:35;;;;;;;11.05;6.82;;;19.40;81.00;;;;;;5075310;28;20043;-72
2023/09/15 02:09:04;;;;;;;10.98;6.70;;;19.40;81.00;;;;;;5074823;28;20043;-67
2023/09/15 02:11:30;;;;;;;9.68;5.72;;;19.40;80.90;;;;;;5075087;28;20053;-72
2023/09/15 02:13:56;;;;;;;10.23;6.50;;;19.40;80.70;;;;;;5075583;28;20025;-67
2023/09/15 02:16:24;;;;;;;9.93;6.20;;;19.40;80.60;;;;;;5075287;28;20134;-72
2023/09/15 02:18:50;;;;;;;11.15;7.10;;;19.40;80.50;;;;;;5075081;28;20032;-71
2023/09/15 02:21:16;;;;;;;9.38;6.53;;;19.40;80.50;;;;;;5075788;28;20032;-71
2023/09/15 02:23:42;;;;;;;9.40;6.50;;;19.40;80.60;;;;;;5075182;28;20130;-72
2023/09/15 02:26:08;;;;;;;11.02;7.07;;;19.40;80.50;;;;;;5075725;28;20127;-67
2023/09/15 02:28:35;;;;;;;9.95;6.68;;;19.30;80.60;;;;;;5074917;28;20465;-72
2023/09/15 02:31:06;;;;;;;11.60;6.82;;;19.40;80.50;;;;;;5075409;28;20028;-72
2023/09/15 02:33:34;;;;;;;10.15;7.00;;;19.30;80.60;;;;;;5075723;28;20037;-66
2023/09/15 02:36:01;;;;;;;9.88;5.85;;;19.20;80.70;;;;;;5075347;28;20028;-66
2023/09/15 02:38:27;;;;;;;10.00;6.05;;;19.20;80.60;;;;;;5075224;28;20021;-66
2023/09/15 02:40:53;;;;;;;10.30;5.68;;;19.20;80.70;;;;;;5075016;28;20016;-71
2023/09/15 02:43:19;;;;;;;8.60;5.38;;;19.20;80.70;;;;;;5075268;28;20435;-72
2023/09/15 02:45:45;;;;;;;8.77;5.40;;;19.20;80.80;;;;;;5075200;28;20040;-72
2023/09/15 02:48:12;;;;;;;8.38;5.63;;;19.20;80.70;;;;;;5074931;28;20358;-67
2023/09/15 02:50:43;;;;;;;8.98;5.35;;;19.20;80.80;;;;;;5074931;28;20028;-72
2023/09/15 02:53:09;;;;;;;7.82;5.38;;;19.20;80.80;;;;;;5075422;28;20059;-67
2023/09/15 02:55:38;;;;;;;9.02;6.38;;;19.20;80.90;;;;;;5074799;28;20047;-71
2023/09/15 02:58:05;;;;;;;7.28;5.00;;;19.20;80.80;;;;;;5075023;28;20485;-72
2023/09/15 03:00:31;;;;;;;6.75;4.97;;;19.20;80.80;;;;;;5074817;28;20025;-72
2023/09/15 03:02:57;;;;;;;9.27;5.30;;;19.20;80.90;;;;;;5075027;28;20017;-67
2023/09/15 03:05:23;;;;;;;8.77;5.40;;;19.20;80.80;;;;;;5074989;28;20476;-72
2023/09/15 03:07:49;;;;;;;6.75;5.05;;;19.20;80.90;;;;;;5074689;28;20495;-72
2023/09/15 03:10:15;;;;;;;8.35;5.80;;;19.20;80.80;;;;;;5074634;28;20498;-67
2023/09/15 03:12:41;;;;;;;7.97;5.35;;;19.20;80.80;;;;;;5074960;28;20020;-71
2023/09/15 03:15:08;;;;;;;7.57;5.47;;;19.20;80.90;;;;;;5074693;28;20354;-68
2023/09/15 03:17:37;;;;;;;9.60;5.47;;;19.20;80.90;;;;;;5074668;28;20139;-67
2023/09/15 03:20:15;;;;;;;9.10;5.40;;;19.20;81.00;;;;;;5075429;28;20060;-70
2023/09/15 03:22:46;;;;;;;8.55;5.80;;;19.20;80.90;;;;;;5078309;28;20029;-67
2023/09/15 03:25:14;;;;;;;8.68;5.07;;;19.20;80.80;;;;;;5078241;28;20037;-66
2023/09/15 03:27:40;;;;;;;9.30;6.07;;;19.20;80.80;;;;;;5078524;28;20036;-69
2023/09/15 03:30:06;;;;;;;10.27;5.70;;;19.20;80.80;;;;;;5078105;28;20328;-66
2023/09/15 03:32:33;;;;;;;8.15;5.38;;;19.20;80.80;;;;;;5078161;28;20034;-72
2023/09/15 03:35:00;;;;;;;9.43;5.97;;;19.20;80.80;;;;;;5078418;28;20119;-72
2023/09/15 03:37:26;;;;;;;10.05;5.45;;;19.20;80.70;;;;;;5078360;28;20021;-66
2023/09/15 03:39:52;;;;;;;10.20;5.40;;;19.20;80.80;;;;;;5078036;28;20362;-67
2023/09/15 03:42:18;;;;;;;9.93;5.90;;;19.20;80.70;;;;;;5078278;28;20039;-67
2023/09/15 03:44:44;;;;;;;10.20;5.80;;;19.20;80.60;;;;;;5078031;28;20397;-67
2023/09/15 03:47:10;;;;;;;11.60;6.00;;;19.20;80.70;;;;;;5078004;28;20021;-71
2023/09/15 03:49:36;;;;;;;9.85;5.70;;;19.20;80.80;;;;;;5077782;28;20036;-67
2023/09/15 03:52:02;;;;;;;9.85;5.47;;;19.10;80.70;;;;;;5077914;28;20028;-72
2023/09/15 03:54:28;;;;;;;10.98;5.40;;;19.10;80.80;;;;;;5077857;28;20062;-69
2023/09/15 03:56:54;;;;;;;10.40;5.57;;;19.20;80.90;;;;;;5077800;28;20328;-72
2023/09/15 03:59:20;;;;;;;10.10;5.82;;;19.10;80.90;;;;;;5077910;28;20082;-66
2023/09/15 04:01:49;;;;;;;15.10;6.30;;;19.10;80.90;;;;;;5077983;28;20020;-69
2023/09/15 04:04:15;;;;;;;12.95;6.32;;;19.10;80.80;;;;;;5078171;28;20028;-71
2023/09/15 04:06:41;;;;;;;10.00;5.95;;;19.10;80.60;;;;;;5077834;28;20037;-66
2023/09/15 04:09:12;;;;;;;11.05;6.22;;;19.20;80.40;;;;;;5059765;28;20366;-71
2023/09/15 04:11:39;;;;;;;9.40;5.95;;;19.20;80.20;;;;;;5077537;28;20127;-68
2023/09/15 04:14:05;;;;;;;8.27;5.38;;;19.20;80.10;;;;;;5059753;28;20397;-72
2023/09/15 04:16:31;;;;;;;7.97;5.78;;;19.20;80.00;;;;;;5059704;28;20021;-71
2023/09/15 04:18:57;;;;;;;9.07;5.97;;;19.20;79.90;;;;;;5077518;28;20055;-71
2023/09/15 04:21:23;;;;;;;10.68;6.20;;;19.20;79.80;;;;;;5077317;28;20170;-72
2023/09/15 04:23:50;;;;;;;10.40;5.75;;;19.20;79.70;;;;;;5077346;28;20522;-67
2023/09/15 04:26:15;;;;;;;10.02;6.43;;;19.20;79.70;;;;;;5077271;28;20401;-71
2023/09/15 04:28:41;;;;;;;10.60;6.40;;;19.20;79.60;;;;;;5077378;28;20032;-66
2023/09/15 04:31:07;;;;;;;8.82;5.53;;;19.20;79.60;;;;;;5076793;28;20024;-71
2023/09/15 04:33:33;;;;;;;9.30;5.50;;;19.10;79.50;;;;;;5077372;28;20068;-68
2023/09/15 04:35:59;;;;;;;12.45;5.47;;;19.10;79.50;;;;;;5076987;28;20024;-72
2023/09/15 04:38:25;;;;;;;8.77;5.70;;;19.20;79.40;;;;;;5077189;28;20173;-67
2023/09/15 04:40:52;;;;;;;7.45;5.25;;;19.10;79.30;;;;;;5076964;28;20435;-71
2023/09/15 04:43:18;;;;;;;10.32;6.13;;;19.20;79.20;;;;;;5077408;28;20052;-66
2023/09/15 04:45:44;;;;;;;8.50;5.45;;;19.20;79.20;;;;;;5076763;28;20055;-72
2023/09/15 04:48:10;;;;;;;10.38;5.47;;;19.10;79.10;;;;;;5077193;28;20077;-68
2023/09/15 04:50:38;;;;;;;9.48;5.75;;;19.10;79.00;;;;;;5076732;28;20028;-66
2023/09/15 04:53:07;;;;;;;9.18;4.70;;;19.20;79.00;;;;;;5077226;28;20086;-67
2023/09/15 04:55:33;;;;;;;9.20;5.45;;;19.20;79.00;;;;;;5076563;28;20055;-72
2023/09/15 04:57:59;;;;;;;10.23;5.30;;;19.20;78.80;;;;;;5076376;28;20363;-72
2023/09/15 05:00:27;;;;;;;8.20;5.47;;;19.20;78.60;;;;;;5076553;28;20024;-71
2023/09/15 05:02:53;;;;;;;7.18;4.70;;;19.30;78.50;;;;;;5076464;28;20077;-71
2023/09/15 05:05:19;;;;;;;8.05;4.80;;;19.30;78.30;;;;;;5076694;28;20103;-71
2023/09/15 05:07:45;;;;;;;7.22;4.30;;;19.40;78.10;;;;;;5076316;28;20496;-71
2023/09/15 05:10:12;;;;;;;6.80;4.18;;;19.40;78.10;;;;;;5055178;28;20056;-67
2023/09/15 05:12:38;;;;;;;7.43;4.68;;;19.40;78.00;;;;;;5056953;28;20024;-71
2023/09/15 05:15:05;;;;;;;8.30;4.38;;;19.40;78.00;;;;;;5056422;28;20017;-67
2023/09/15 05:17:32;;;;;;;7.50;4.63;;;19.40;78.00;;;;;;5056296;28;20411;-67
2023/09/15 05:19:58;;;;;;;6.40;4.50;;;19.50;78.00;;;;;;5056079;28;20348;-71
2023/09/15 05:22:24;;;;;;;7.60;5.07;;;19.50;78.10;;;;;;5056404;28;20032;-67
2023/09/15 05:24:50;;;;;;;9.40;4.90;;;19.50;78.20;;;;;;5056649;28;20035;-67
2023/09/15 05:27:16;;;;;;;9.50;5.15;;;19.60;78.10;;;;;;5056058;28;20029;-72
2023/09/15 05:29:42;;;;;;;8.27;5.00;;;19.60;78.30;;;;;;5055872;28;20021;-72
2023/09/15 05:32:08;;;;;;;6.68;4.88;;;19.70;78.40;;;;;;5056214;28;20017;-72
2023/09/15 05:34:34;;;;;;;7.80;4.93;;;19.90;78.30;;;;;;5056247;28;20029;-67
2023/09/15 05:37:00;;;;;;;9.32;5.28;;;20.30;77.80;;;;;;5056470;28;20025;-71
2023/09/15 05:39:26;;;;;;;9.15;5.00;;;20.50;77.10;;;;;;5054799;28;20119;-68
2023/09/15 05:41:52;;;;;;;9.57;5.15;;;20.80;76.60;;;;;;5055765;28;20024;-72
2023/09/15 05:44:17;;;;;;;8.00;5.10;;;20.90;76.10;;;;;;5055112;28;20036;-71
2023/09/15 05:46:44;;;;;;;9.82;5.30;;;21.00;75.70;;;;;;5054868;28;20020;-67
2023/09/15 05:49:10;;;;;;;8.93;4.75;;;20.90;75.70;;;;;;5055787;28;20064;-67
2023/09/15 05:51:35;;;;;;;9.10;5.63;;;20.80;75.70;;;;;;5054818;28;20099;-67
2023/09/15 05:54:02;;;;;;;10.75;5.65;;;20.80;75.90;;;;;;5054737;28;20354;-67
2023/09/15 05:56:29;;;;;;;10.25;5.60;;;20.70;76.10;;;;;;5055678;28;20446;-71
2023/09/15 05:58:55;;;;;;;7.95;5.75;;;20.60;76.30;;;;;;5055428;28;20083;-72
2023/09/15 06:01:21;;;;;;;11.20;6.28;;;20.50;76.40;;;;;;5055505;28;20024;-72
2023/09/15 06:03:48;;;;;;;9.07;5.57;;;20.50;76.50;;;;;;5056007;28;20031;-72
2023/09/15 06:06:16;;;;;;;9.23;6.32;;;20.50;76.70;;;;;;5055407;28;20396;-67
2023/09/15 06:08:42;;;;;;;10.50;6.05;;;20.40;77.10;;;;;;5055534;28;20029;-68
2023/09/15 06:11:08;;;;;;;8.93;6.18;;;20.40;77.20;;;;;;5067292;28;20067;-67
2023/09/15 06:13:35;;;;;;;11.98;6.03;;;20.50;77.50;;;;;;5075305;28;20438;-71
2023/09/15 06:16:03;;;;;;;9.30;5.65;;;20.50;77.40;;;;;;5075580;28;20069;-72
2023/09/15 06:18:30;;;;;;;11.82;5.93;;;20.50;77.30;;;;;;5075160;28;20050;-67
2023/09/15 06:20:57;;;;;;;9.55;5.53;;;20.50;77.20;;;;;;5057704;28;20120;-72
2023/09/15 06:23:24;;;;;;;8.02;4.80;;;20.50;77.20;;;;;;5057543;28;20154;-67
2023/09/15 06:25:53;;;;;;;7.40;4.75;;;20.60;77.10;;;;;;5075164;28;20067;-67
2023/09/15 06:28:19;;;;;;;8.30;5.00;;;20.70;77.10;;;;;;5075061;28;20028;-67
2023/09/15 06:30:45;;;;;;;8.30;5.35;;;20.80;77.00;;;;;;5075124;28;20039;-72
2023/09/15 06:33:11;;;;;;;7.95;5.20;;;21.00;76.90;;;;;;5075069;28;20431;-67
2023/09/15 06:35:38;;;;;;;7.50;4.97;;;21.40;76.50;;;;;;5057376;28;20034;-70
2023/09/15 06:38:06;;;;;;;5.30;4.28;;;21.70;75.50;;;;;;5074959;28;20056;-67
2023/09/15 06:40:35;;;;;;;6.85;4.47;;;21.90;75.20;;;;;;5057180;28;20059;-72
2023/09/15 06:43:04;;;;;;;7.85;4.88;;;22.00;74.90;;;;;;5074800;28;20028;-68
2023/09/15 06:45:31;;;;;;;8.00;5.05;;;22.20;74.40;;;;;;5075028;28;20362;-67
2023/09/15 06:48:01;;;;;;;9.52;4.78;;;22.60;74.30;;;;;;5074857;28;20103;-70
2023/09/15 06:50:28;;;;;;;6.70;4.25;;;23.40;73.10;;;;;;5075167;28;20036;-68
2023/09/15 06:52:54;;;;;;;5.53;4.03;;;24.00;71.20;;;;;;5075474;28;20017;-68
2023/09/15 06:55:20;;;;;;;5.22;3.78;;;24.20;70.20;;;;;;5060046;28;20454;-70
2023/09/15 06:57:46;;;;;;;7.80;4.20;;;24.10;69.90;;;;;;5078830;28;20032;-72
2023/09/15 07:00:12;;;;;;;6.32;4.50;;;23.90;69.90;;;;;;5078836;28;20037;-72
2023/09/15 07:02:38;;;;;;;6.32;3.85;;;23.70;69.30;;;;;;5078758;28;20070;-72
2023/09/15 07:05:05;;;;;;;5.90;4.50;;;23.40;68.10;;;;;;5079239;28;20104;-71
2023/09/15 07:07:31;;;;;;;6.72;4.45;;;23.20;68.20;;;;;;5078995;28;20446;-67
2023/09/15 07:09:57;;;;;;;5.80;4.38;;;22.90;67.00;;;;;;5078303;28;20035;-72
2023/09/15 07:12:23;;;;;;;5.88;4.75;;;22.70;67.90;;;;;;5079182;28;20045;-68
2023/09/15 07:14:49;;;;;;;7.20;4.65;;;22.50;68.10;;;;;;5079100;28;20423;-67
2023/09/15 07:17:17;;;;;;;6.78;4.90;;;22.40;67.90;;;;;;5078437;28;20489;-67
2023/09/15 07:19:46;;;;;;;7.35;5.03;;;22.30;68.10;;;;;;5078505;28;20028;-72
2023/09/15 07:22:12;;;;;;;7.03;4.53;;;22.20;68.20;;;;;;5060846;28;20377;-67
2023/09/15 07:24:41;;;;;;;6.68;5.00;;;22.00;68.70;;;;;;5078417;28;20037;-67
2023/09/15 07:27:10;;;;;;;5.85;4.40;;;22.00;68.50;;;;;;5078322;28;20028;-67
2023/09/15 07:29:37;;;;;;;8.32;5.28;;;21.90;68.80;;;;;;5078092;28;20464;-72
2023/09/15 07:32:04;;;;;;;6.10;4.70;;;21.80;69.30;;;;;;5078233;28;20331;-67
2023/09/15 07:34:30;;;;;;;7.72;5.22;;;21.70;69.50;;;;;;5078166;28;20335;-70
2023/09/15 07:36:56;;;;;;;7.13;5.05;;;21.70;69.80;;;;;;5078422;28;20070;-67
2023/09/15 07:39:22;;;;;;;7.80;5.35;;;21.50;70.10;;;;;;5078154;28;20028;-72
2023/09/15 07:41:49;;;;;;;7.35;5.43;;;21.50;70.40;;;;;;5073533;28;20036;-67
2023/09/15 07:44:15;;;;;;;9.20;5.93;;;21.40;71.00;;;;;;5078034;28;20031;-70
2023/09/15 07:46:41;;;;;;;7.97;5.43;;;21.40;71.20;;;;;;5078477;28;20156;-67
2023/09/15 07:49:07;;;;;;;7.78;4.82;;;21.30;71.50;;;;;;5077823;28;20109;-67
2023/09/15 07:51:34;;;;;;;8.85;5.50;;;21.30;71.70;;;;;;5077325;28;20033;-71
2023/09/15 07:54:00;;;;;;;8.32;5.43;;;21.20;71.80;;;;;;5078605;28;20031;-69
2023/09/15 07:56:26;;;;;;;6.93;5.22;;;21.10;71.90;;;;;;5060133;28;20040;-70
2023/09/15 07:58:52;;;;;;;8.18;5.85;;;21.10;72.20;;;;;;5077851;28;20020;-70
2023/09/15 08:01:18;;;;;;;8.32;6.10;;;21.20;72.30;;;;;;5077446;28;20028;-69
2023/09/15 08:03:45;;;;;;;7.47;5.40;;;21.20;72.30;;;;;;5077636;28;20024;-69
2023/09/15 08:06:11;;;;;;;7.00;4.90;;;21.30;72.30;;;;;;5076787;28;20059;-68
2023/09/15 08:08:38;;;;;;;7.75;4.82;;;21.40;72.30;;;;;;5077778;28;20052;-67
2023/09/15 08:11:03;;;;;;;8.40;5.88;;;21.40;72.20;;;;;;5077287;28;20056;-68
2023/09/15 08:13:32;;;;;;;6.68;4.80;;;21.60;71.90;;;;;;5077446;28;20033;-69
2023/09/15 08:16:02;;;;;;;5.57;4.30;;;21.60;71.80;;;;;;5078078;28;20025;-70
2023/09/15 08:18:28;;;;;;;7.03;5.03;;;21.70;71.70;;;;;;5077705;28;20025;-71
2023/09/15 08:20:54;;;;;;;6.93;4.68;;;21.80;71.50;;;;;;5077821;28;20087;-68
2023/09/15 08:23:20;;;;;;;6.93;4.97;;;21.90;71.40;;;;;;5077458;28;20397;-70
2023/09/15 08:25:46;;;;;;;7.53;4.43;;;21.90;71.30;;;;;;5077402;28;20044;-69
2023/09/15 08:28:12;;;;;;;6.80;4.75;;;22.00;71.20;;;;;;5077165;28;20050;-69
2023/09/15 08:30:38;;;;;;;5.72;4.30;;;22.10;71.00;;;;;;5077453;28;20081;-69
2023/09/15 08:33:16;;;;;;;7.45;5.10;;;22.20;70.70;;;;;;5077097;28;20024;-68
2023/09/15 08:35:43;;;;;;;8.85;4.70;;;22.30;70.70;;;;;;5077627;28;20020;-67
2023/09/15 08:38:09;;;;;;;7.15;5.22;;;22.40;70.60;;;;;;5077620;28;20454;-71
2023/09/15 08:40:48;;;;;;;5.13;3.90;;;22.40;70.40;;;;;;5077208;28;20035;-69
2023/09/15 08:43:14;;;;;;;7.10;4.47;;;22.40;70.60;;;;;;5077490;28;20029;-70
2023/09/15 08:45:47;;;;;;;5.53;4.25;;;22.40;70.60;;;;;;5076918;28;20021;-70
2023/09/15 08:48:18;;;;;;;7.10;4.70;;;22.50;70.40;;;;;;5077345;28;20339;-70
2023/09/15 08:50:45;;;;;;;7.20;4.38;;;22.50;70.30;;;;;;5077255;28;20040;-68
2023/09/15 08:53:12;;;;;;;5.50;4.55;;;22.60;70.30;;;;;;5076621;28;20024;-71
2023/09/15 08:55:40;;;;;;;6.18;4.10;;;22.60;70.20;;;;;;5076652;28;20020;-69
2023/09/15 08:58:07;;;;;;;6.07;4.65;;;22.70;70.20;;;;;;5059128;28;20100;-71
2023/09/15 09:00:33;;;;;;;6.85;4.32;;;22.80;70.20;;;;;;5059765;28;20338;-67
2023/09/15 09:03:04;;;;;;;6.18;4.63;;;22.80;70.20;;;;;;5076537;28;20101;-67
2023/09/15 09:05:36;;;;;;;7.57;4.50;;;22.80;70.10;;;;;;5058893;28;20332;-71
2023/09/15 09:08:03;;;;;;;7.40;4.87;;;22.90;69.90;;;;;;5076355;28;20029;-71
2023/09/15 09:10:29;;;;;;;7.13;5.13;;;22.90;69.90;;;;;;5055199;28;20045;-70
2023/09/15 09:12:55;;;;;;;7.18;4.40;;;23.00;70.00;;;;;;5056666;28;20079;-68
2023/09/15 09:15:22;;;;;;;7.03;4.60;;;23.00;70.00;;;;;;5056362;28;20013;-71
2023/09/15 09:17:48;;;;;;;7.07;4.80;;;23.00;69.80;;;;;;5055465;28;20017;-71
2023/09/15 09:20:28;;;;;;;7.35;4.68;;;23.10;69.50;;;;;;5056163;28;20066;-67
2023/09/15 09:22:56;;;;;;;7.78;5.10;;;23.10;69.40;;;;;;5056062;28;20039;-68
2023/09/15 09:25:27;;;;;;;6.65;4.43;;;23.10;69.20;;;;;;5055805;28;20025;-68
2023/09/15 09:27:55;;;;;;;7.13;4.80;;;23.10;69.10;;;;;;5055981;28;20036;-70
2023/09/15 09:30:29;;;;;;;6.10;4.32;;;23.20;69.10;;;;;;5056230;28;20075;-68
2023/09/15 09:32:56;;;;;;;5.88;3.97;;;23.20;69.10;;;;;;5055883;28;20359;-68
2023/09/15 09:35:22;;;;;;;5.72;3.95;;;23.30;69.10;;;;;;5054378;28;20032;-69
2023/09/15 09:37:48;;;;;;;5.50;4.25;;;23.30;68.90;;;;;;5054253;28;20017;-68
2023/09/15 09:40:18;;;;;;;8.43;4.22;;;23.40;68.60;;;;;;5055092;28;20054;-70
2023/09/15 09:42:45;;;;;;;8.77;4.53;;;23.50;68.50;;;;;;5055767;28;20039;-67
2023/09/15 09:45:17;;;;;;;9.88;4.18;;;23.50;68.40;;;;;;5056255;28;20036;-70
2023/09/15 09:47:43;;;;;;;7.47;4.30;;;23.70;68.20;;;;;;5055584;28;20033;-70
2023/09/15 09:50:11;;;;;;;8.77;4.82;;;23.70;68.10;;;;;;5055474;28;20032;-67
2023/09/15 09:52:39;;;;;;;7.18;4.90;;;23.90;68.10;;;;;;5056104;28;20096;-67
2023/09/15 09:55:10;;;;;;;10.45;4.80;;;23.90;68.10;;;;;;5055846;28;20308;-71
2023/09/15 09:57:39;;;;;;;7.20;4.18;;;24.00;68.00;;;;;;5055550;28;20075;-67
2023/09/15 10:00:09;;;;;;;6.68;3.95;;;24.10;67.80;;;;;;5054517;28;20036;-67
2023/09/15 10:02:40;;;;;;;5.55;4.20;;;24.10;67.50;;;;;;5056072;28;20037;-67
2023/09/15 10:05:07;;;;;;;6.45;4.32;;;24.20;67.30;;;;;;5054557;28;20039;-67
2023/09/15 10:07:34;;;;;;;7.93;4.13;;;24.30;67.30;;;;;;5055444;28;20029;-72
2023/09/15 10:10:00;;;;;;;7.55;4.22;;;24.40;67.20;;;;;;5057470;28;20167;-67
2023/09/15 10:12:30;;;;;;;8.77;5.53;;;24.40;67.10;;;;;;5058539;28;20043;-67
2023/09/15 10:14:57;;;;;;;8.32;4.90;;;24.50;66.90;;;;;;5075628;28;20016;-71
2023/09/15 10:17:23;;;;;;;9.73;6.55;;;24.60;66.90;;;;;;5075357;28;20071;-67
2023/09/15 10:19:53;;;;;;;7.47;4.60;;;24.70;66.90;;;;;;5075173;28;20035;-69
2023/09/15 10:22:22;;;;;;;8.45;5.15;;;24.80;66.70;;;;;;5075815;28;20168;-68
2023/09/15 10:25:00;;;;;;;8.63;5.15;;;24.90;66.50;;;;;;5075287;28;20029;-70
2023/09/15 10:27:29;;;;;;;9.10;6.80;;;24.90;66.30;;;;;;5075748;28;20028;-68
2023/09/15 10:30:06;;;;;;;11.45;7.30;;;25.00;66.20;;;;;;5074707;28;20099;-69
2023/09/15 10:32:39;;;;;;;8.60;5.72;;;25.10;65.80;;;;;;5057530;28;20063;-71
2023/09/15 10:35:10;;;;;;;11.02;6.07;;;25.20;65.60;;;;;;5058305;28;20028;-67
2023/09/15 10:37:44;;;;;;;7.15;5.22;;;25.20;65.80;;;;;;5075663;28;20064;-70
2023/09/15 10:40:12;;;;;;;9.88;7.38;;;25.30;65.50;;;;;;5075010;28;20066;-71
2023/09/15 10:42:51;;;;;;;9.75;6.20;;;25.40;65.40;;;;;;5075314;28;20041;-68
2023/09/15 10:45:18;;;;;;;9.85;7.05;;;25.40;65.20;;;;;;5057379;28;20128;-68
2023/09/15 10:47:56;;;;;;;10.55;7.60;;;25.50;65.00;;;;;;5057878;28;20108;-68
2023/09/15 10:50:32;;;;;;;9.75;6.05;;;25.50;64.30;;;;;;5074962;28;20024;-69
2023/09/15 10:53:12;;;;;;;13.43;7.70;;;25.60;64.70;;;;;;5074918;28;20107;-69
2023/09/15 10:55:40;;;;;;;12.30;7.50;;;25.70;64.70;;;;;;5057340;28;20021;-69
2023/09/15 10:58:07;;;;;;;9.68;6.10;;;25.80;64.40;;;;;;5074817;28;20473;-70
2023/09/15 11:00:33;;;;;;;8.85;6.57;;;25.80;64.40;;;;;;5074946;28;20055;-69
2023/09/15 11:05:29;;;;;;;10.23;7.13;;;25.90;63.70;;;;;;5075493;28;20118;-69
2023/09/15 11:10:31;;;;;;;10.63;6.53;;;26.00;63.20;;;;;;5075122;28;20066;-72
2023/09/15 11:13:00;;;;;;;11.65;7.30;;;26.00;62.70;;;;;;5074785;28;20443;-69
2023/09/15 11:15:31;;;;;;;10.10;6.32;;;26.00;62.60;;;;;;5075067;28;20051;-68
2023/09/15 11:17:58;;;;;;;11.23;6.82;;;26.00;61.70;;;;;;5074615;28;20060;-69
2023/09/15 11:20:28;;;;;;;9.23;6.53;;;26.00;61.70;;;;;;5075044;28;20033;-68
2023/09/15 11:22:58;;;;;;;9.60;6.40;;;26.00;61.80;;;;;;5074761;28;20025;-68
2023/09/15 11:25:24;;;;;;;9.13;6.20;;;26.10;61.90;;;;;;5075297;28;20036;-68
2023/09/15 11:27:51;;;;;;;9.50;6.90;;;26.20;61.80;;;;;;5074910;28;20096;-70
2023/09/15 11:30:18;;;;;;;9.50;6.18;;;26.30;61.30;;;;;;5074525;28;20036;-67
2023/09/15 11:32:44;;;;;;;8.63;5.85;;;26.30;60.40;;;;;;5074855;28;20083;-70
2023/09/15 11:35:12;;;;;;;7.20;5.28;;;26.20;59.10;;;;;;5074592;28;20447;-67
2023/09/15 11:37:40;;;;;;;7.53;5.32;;;26.20;58.80;;;;;;5057021;28;20025;-71
2023/09/15 11:40:19;;;;;;;8.38;5.93;;;26.20;58.70;;;;;;5074522;28;20028;-68
2023/09/15 11:42:56;;;;;;;8.38;5.22;;;26.10;56.40;;;;;;5078017;28;20021;-69
2023/09/15 11:45:27;;;;;;;10.07;6.13;;;26.10;57.80;;;;;;5078108;28;20516;-68
2023/09/15 11:47:58;;;;;;;8.25;5.78;;;26.10;57.40;;;;;;5060422;28;20078;-68
2023/09/15 11:50:25;;;;;;;8.27;5.78;;;26.10;57.00;;;;;;5078214;28;20119;-67
2023/09/15 11:52:52;;;;;;;8.70;5.55;;;26.10;57.40;;;;;;5060639;28;20035;-66
2023/09/15 11:55:20;;;;;;;8.88;5.65;;;26.20;57.20;;;;;;5077915;28;20034;-65
2023/09/15 11:57:47;;;;;;;8.63;5.68;;;26.20;57.00;;;;;;5078395;28;20327;-66
2023/09/15 12:00:18;;;;;;;11.20;5.55;;;26.30;56.70;;;;;;5060309;28;20020;-65
2023/09/15 12:02:45;;;;;;;8.65;5.28;;;26.30;56.20;;;;;;5060213;28;20447;-67
2023/09/15 12:05:13;;;;;;;6.85;5.10;;;26.40;55.90;;;;;;5078315;28;20107;-65
2023/09/15 12:07:39;;;;;;;9.05;5.55;;;26.40;54.90;;;;;;5078235;28;20031;-68
2023/09/15 12:10:09;;;;;;;8.73;5.05;;;26.40;55.60;;;;;;5077169;28;20374;-70
2023/09/15 12:12:35;;;;;;;6.57;4.82;;;26.40;56.20;;;;;;5077611;28;20064;-62
2023/09/15 12:15:04;;;;;;;7.15;5.25;;;26.40;56.10;;;;;;5078124;28;20439;-71
2023/09/15 12:17:34;;;;;;;6.68;4.60;;;26.50;56.10;;;;;;5077456;28;20362;-64
2023/09/15 12:20:04;;;;;;;6.35;4.72;;;26.60;55.70;;;;;;5077358;28;20028;-72
2023/09/15 12:22:41;;;;;;;8.38;5.10;;;26.90;55.30;;;;;;5077673;28;20070;-64
2023/09/15 12:25:10;;;;;;;6.50;4.82;;;27.00;54.20;;;;;;5077740;28;20032;-73
2023/09/15 12:27:41;;;;;;;7.30;4.65;;;27.10;53.50;;;;;;5077311;28;20024;-69
2023/09/15 12:30:09;;;;;;;7.00;5.05;;;27.20;52.70;;;;;;5059569;28;20029;-67
2023/09/15 12:32:38;;;;;;;6.57;4.88;;;27.20;53.00;;;;;;5077807;28;20028;-69
2023/09/15 12:35:12;;;;;;;7.45;5.50;;;27.10;52.90;;;;;;5077514;28;20043;-70
2023/09/15 12:37:45;;;;;;;6.18;4.97;;;27.00;52.60;;;;;;5059405;28;20032;-69
2023/09/15 12:40:13;;;;;;;7.18;4.85;;;27.00;53.40;;;;;;5059708;28;20115;-69
2023/09/15 12:42:39;;;;;;;7.20;5.07;;;26.90;53.60;;;;;;5077132;28;20040;-70
2023/09/15 12:45:06;;;;;;;6.72;4.55;;;26.90;53.90;;;;;;5077307;28;20025;-69
2023/09/15 12:47:33;;;;;;;6.70;4.35;;;27.00;54.10;;;;;;5059337;28;20028;-69
2023/09/15 12:50:00;;;;;;;7.00;5.53;;;27.00;54.30;;;;;;5076715;28;20066;-68